Time;durP1;ratioP1;P1;durP2;ratioP2;P2;SDS_P1;SDS_P2;PMS_P1;PMS_P2;Temp;Humidity;BMP_temperature;BMP_pressure;BME280_temperature;BME280_humidity;BME280_pressure;Samples;Min_cycle;Max_cycle;Signal;HPM_P1;HPM_P2
2023/11/15 00:00:08;;;;;;;14.23;1.70;;;9.90;99.90;;;;;;4981084;28;20022;-87
2023/11/15 00:02:34;;;;;;;10.88;1.50;;;9.90;99.90;;;;;;4980586;28;20026;-85
2023/11/15 00:05:00;;;;;;;11.23;1.00;;;9.90;99.90;;;;;;4982977;28;20097;-85
2023/11/15 00:07:25;;;;;;;10.05;1.00;;;9.90;99.90;;;;;;4981336;28;20513;-87
2023/11/15 00:09:51;;;;;;;9.73;1.00;;;9.90;99.90;;;;;;4984402;28;20085;-83
2023/11/15 00:12:17;;;;;;;7.45;1.02;;;9.90;99.90;;;;;;4983016;28;20065;-84
2023/11/15 00:14:43;;;;;;;13.20;1.30;;;9.90;99.90;;;;;;4981548;28;20031;-82
2023/11/15 00:17:09;;;;;;;15.75;1.15;;;9.90;99.90;;;;;;4975624;28;20027;-85
2023/11/15 00:19:35;;;;;;;13.30;1.60;;;9.90;99.90;;;;;;4983201;28;20041;-83
2023/11/15 00:22:01;;;;;;;7.85;1.10;;;9.90;99.90;;;;;;4999729;28;20353;-87
2023/11/15 00:24:27;;;;;;;10.68;2.05;;;9.90;99.90;;;;;;4987003;28;20023;-83
2023/11/15 00:26:52;;;;;;;10.02;1.70;;;9.90;99.90;;;;;;4983627;28;20558;-83
2023/11/15 00:29:18;;;;;;;9.45;1.60;;;9.90;99.90;;;;;;4969256;28;20034;-88
2023/11/15 00:31:44;;;;;;;9.75;1.25;;;9.90;99.90;;;;;;4971725;28;20544;-85
2023/11/15 00:34:10;;;;;;;6.22;1.20;;;9.80;99.90;;;;;;4988731;28;20045;-87
2023/11/15 00:36:42;;;;;;;11.15;1.50;;;9.80;99.90;;;;;;4983576;28;20039;-87
2023/11/15 00:39:08;;;;;;;9.30;1.48;;;9.80;99.90;;;;;;4988280;28;20026;-86
2023/11/15 00:41:35;;;;;;;7.60;1.05;;;9.80;99.90;;;;;;4984566;28;20394;-88
2023/11/15 00:44:03;;;;;;;8.82;0.75;;;9.80;99.90;;;;;;4983714;28;20102;-90
2023/11/15 00:46:29;;;;;;;4.85;1.15;;;9.80;99.90;;;;;;4986712;28;20031;-86
2023/11/15 00:48:55;;;;;;;6.78;0.80;;;9.80;99.90;;;;;;4969515;28;20062;-85
2023/11/15 00:51:21;;;;;;;8.43;1.00;;;9.70;99.90;;;;;;5000334;28;20273;-88
2023/11/15 00:53:47;;;;;;;7.57;0.73;;;9.70;99.90;;;;;;4985804;28;20046;-88
2023/11/15 00:56:13;;;;;;;9.70;0.70;;;9.80;99.90;;;;;;5000342;28;20427;-88
2023/11/15 00:58:39;;;;;;;7.28;0.80;;;9.80;99.90;;;;;;4985058;28;20036;-86
2023/11/15 01:01:08;;;;;;;5.53;0.80;;;9.80;99.90;;;;;;4970341;28;20027;-87
2023/11/15 01:03:37;;;;;;;8.38;0.70;;;9.80;99.90;;;;;;4984812;28;20061;-85
2023/11/15 01:06:03;;;;;;;5.53;0.90;;;9.80;99.90;;;;;;4979671;28;20455;-89
2023/11/15 01:08:29;;;;;;;5.60;0.80;;;9.80;99.90;;;;;;4985760;28;20049;-86
2023/11/15 01:10:55;;;;;;;6.85;1.10;;;9.80;99.90;;;;;;4985009;28;20070;-84
2023/11/15 01:13:21;;;;;;;5.68;0.70;;;9.90;99.90;;;;;;4986199;28;20494;-87
2023/11/15 01:15:48;;;;;;;4.50;0.75;;;9.90;99.90;;;;;;4978508;28;20380;-87
2023/11/15 01:18:14;;;;;;;7.57;0.68;;;9.90;99.90;;;;;;4986143;28;20022;-86
2023/11/15 01:20:43;;;;;;;3.20;0.60;;;9.80;99.90;;;;;;4988833;28;20088;-87
2023/11/15 01:23:09;;;;;;;4.38;0.75;;;9.90;99.90;;;;;;4969069;28;20034;-86
2023/11/15 01:25:36;;;;;;;7.75;1.50;;;9.90;99.90;;;;;;4980813;28;20027;-92
2023/11/15 01:28:02;;;;;;;6.95;1.02;;;9.90;99.90;;;;;;4988974;28;20038;-86
2023/11/15 01:30:28;;;;;;;6.47;1.40;;;9.90;99.90;;;;;;4999542;28;20101;-90
2023/11/15 01:32:54;;;;;;;8.88;2.45;;;9.90;99.90;;;;;;4995365;28;20384;-86
2023/11/15 01:35:23;;;;;;;10.10;2.75;;;9.90;99.90;;;;;;4980636;28;20137;-87
2023/11/15 01:37:53;;;;;;;10.63;2.20;;;9.90;99.90;;;;;;4987143;28;20039;-88
2023/11/15 01:40:23;;;;;;;12.93;3.05;;;10.00;99.90;;;;;;4967852;28;20031;-84
2023/11/15 01:42:50;;;;;;;14.50;3.17;;;10.00;99.90;;;;;;4970093;28;20041;-85
2023/11/15 01:45:16;;;;;;;12.68;2.60;;;10.00;99.90;;;;;;4979998;28;20475;-86
2023/11/15 01:47:43;;;;;;;9.45;1.77;;;10.00;99.90;;;;;;4985163;28;20430;-86
2023/11/15 01:50:10;;;;;;;8.75;1.80;;;9.90;99.90;;;;;;4985360;28;20026;-88
2023/11/15 01:52:37;;;;;;;7.93;1.48;;;9.90;99.90;;;;;;4970128;28;20478;-87
2023/11/15 01:55:10;;;;;;;7.03;1.23;;;9.80;99.90;;;;;;4973437;28;20395;-89
2023/11/15 01:57:37;;;;;;;7.22;0.80;;;9.80;99.90;;;;;;4973396;28;20541;-86
2023/11/15 02:00:08;;;;;;;6.10;0.82;;;9.80;99.90;;;;;;4972621;28;20048;-86
2023/11/15 02:02:38;;;;;;;6.93;0.60;;;9.70;99.90;;;;;;4985998;28;20051;-87
2023/11/15 02:05:05;;;;;;;3.42;0.40;;;9.70;99.90;;;;;;5001510;28;20133;-90
2023/11/15 02:07:31;;;;;;;3.40;0.35;;;9.60;99.90;;;;;;4969611;28;20066;-89
2023/11/15 02:09:57;;;;;;;1.67;0.20;;;9.60;99.90;;;;;;4989762;28;20027;-85
2023/11/15 02:12:23;;;;;;;4.53;0.22;;;9.50;99.90;;;;;;4984009;28;20042;-87
2023/11/15 02:14:48;;;;;;;3.70;0.40;;;9.50;99.90;;;;;;4987223;28;20099;-85
2023/11/15 02:17:14;;;;;;;1.45;0.20;;;9.50;99.90;;;;;;4971353;28;20125;-84
2023/11/15 02:19:40;;;;;;;3.45;0.20;;;9.50;99.90;;;;;;4987195;28;20029;-88
2023/11/15 02:22:05;;;;;;;1.50;0.20;;;9.50;99.90;;;;;;4969701;28;20360;-91
2023/11/15 02:24:31;;;;;;;1.85;0.20;;;9.50;99.90;;;;;;4996164;28;20399;-89
2023/11/15 02:26:57;;;;;;;1.08;0.20;;;9.40;99.90;;;;;;4997900;28;20069;-90
2023/11/15 02:29:23;;;;;;;3.22;0.20;;;9.50;99.90;;;;;;4985154;28;20030;-89
2023/11/15 02:31:49;;;;;;;2.70;0.20;;;9.40;99.90;;;;;;4986490;28;20042;-90
2023/11/15 02:34:15;;;;;;;1.05;0.15;;;9.40;99.90;;;;;;4997694;28;20386;-86
2023/11/15 02:36:42;;;;;;;1.42;0.10;;;9.40;99.90;;;;;;4969893;28;20035;-86
2023/11/15 02:39:07;;;;;;;1.42;0.20;;;9.40;99.90;;;;;;4999978;28;20022;-87
2023/11/15 02:41:33;;;;;;;3.10;0.20;;;9.40;99.90;;;;;;4970113;28;20414;-87
2023/11/15 02:43:59;;;;;;;4.00;0.30;;;9.40;99.90;;;;;;4986904;28;20026;-87
2023/11/15 02:46:24;;;;;;;1.20;0.20;;;9.40;99.90;;;;;;4987856;28;20031;-86
2023/11/15 02:48:51;;;;;;;2.47;0.43;;;9.40;99.90;;;;;;4983617;28;20031;-87
2023/11/15 02:51:17;;;;;;;1.83;0.20;;;9.50;99.90;;;;;;4971950;28;20438;-89
2023/11/15 02:53:43;;;;;;;3.58;0.20;;;9.50;99.90;;;;;;4969741;28;20101;-87
2023/11/15 02:56:09;;;;;;;2.53;0.55;;;9.50;99.90;;;;;;4988669;28;20034;-87
2023/11/15 02:58:35;;;;;;;2.67;0.60;;;9.50;99.90;;;;;;4971352;28;20050;-85
2023/11/15 03:01:06;;;;;;;2.78;0.30;;;9.50;99.90;;;;;;4999008;28;20438;-85
2023/11/15 03:03:35;;;;;;;2.08;0.35;;;9.50;99.90;;;;;;4979847;28;20049;-86
2023/11/15 03:06:02;;;;;;;8.00;1.50;;;9.50;99.90;;;;;;4985603;28;20046;-86
2023/11/15 03:08:27;;;;;;;9.88;1.73;;;9.70;99.90;;;;;;4986307;28;20309;-87
2023/11/15 03:10:53;;;;;;;6.07;1.15;;;9.80;99.90;;;;;;4996929;28;20035;-88
2023/11/15 03:13:19;;;;;;;6.30;0.70;;;9.80;99.90;;;;;;4969234;28;20379;-86
2023/11/15 03:15:48;;;;;;;3.97;0.70;;;9.80;99.90;;;;;;4967813;28;20057;-85
2023/11/15 03:18:14;;;;;;;3.03;0.47;;;9.80;99.90;;;;;;4968395;28;20117;-84
2023/11/15 03:20:40;;;;;;;7.30;0.85;;;9.80;99.90;;;;;;4998465;28;20382;-88
2023/11/15 03:23:06;;;;;;;4.13;0.80;;;9.70;99.90;;;;;;4981961;28;20034;-87
2023/11/15 03:25:32;;;;;;;3.10;0.70;;;9.70;99.90;;;;;;4983568;28;20026;-87
2023/11/15 03:27:58;;;;;;;2.92;0.40;;;9.70;99.90;;;;;;4987443;28;20022;-86
2023/11/15 03:30:24;;;;;;;3.08;0.50;;;9.70;99.90;;;;;;4982538;28;20558;-87
2023/11/15 03:32:50;;;;;;;4.55;0.60;;;9.70;99.90;;;;;;4985475;28;20105;-83
2023/11/15 03:35:18;;;;;;;2.47;0.40;;;9.70;99.90;;;;;;4996682;28;20046;-86
2023/11/15 03:37:44;;;;;;;4.22;0.50;;;9.70;99.90;;;;;;4982977;28;20038;-87
2023/11/15 03:40:10;;;;;;;3.55;0.90;;;9.70;99.90;;;;;;4968140;28;20022;-84
2023/11/15 03:42:36;;;;;;;4.32;0.73;;;9.70;99.90;;;;;;4970812;28;20026;-85
2023/11/15 03:45:04;;;;;;;4.00;0.50;;;9.70;99.90;;;;;;4992925;28;20054;-86
2023/11/15 03:47:31;;;;;;;13.13;1.30;;;9.80;99.90;;;;;;4966571;28;20035;-89
2023/11/15 03:49:59;;;;;;;16.85;1.35;;;10.10;99.90;;;;;;4979306;28;20506;-86
2023/11/15 03:52:24;;;;;;;16.40;1.67;;;10.10;99.90;;;;;;4986591;28;20041;-86
2023/11/15 03:54:50;;;;;;;16.23;1.33;;;10.10;99.90;;;;;;4980745;28;20022;-85
2023/11/15 03:57:17;;;;;;;13.50;1.10;;;10.10;99.90;;;;;;4981097;28;20027;-88
2023/11/15 03:59:43;;;;;;;12.35;1.25;;;10.20;99.90;;;;;;4982928;28;20101;-85
2023/11/15 04:02:09;;;;;;;12.90;1.77;;;10.20;99.90;;;;;;4967540;28;20038;-85
2023/11/15 04:04:37;;;;;;;10.55;1.00;;;10.10;99.90;;;;;;4982626;28;20365;-87
2023/11/15 04:07:03;;;;;;;14.27;1.50;;;10.20;99.90;;;;;;4970377;28;20117;-86
2023/11/15 04:09:32;;;;;;;12.77;1.15;;;10.10;99.90;;;;;;4983650;28;20030;-87
2023/11/15 04:11:58;;;;;;;10.90;1.15;;;10.20;99.90;;;;;;4986308;28;20045;-85
2023/11/15 04:14:25;;;;;;;12.70;0.88;;;10.20;99.90;;;;;;4994564;28;20030;-85
2023/11/15 04:16:51;;;;;;;11.77;1.13;;;10.20;99.90;;;;;;4968621;28;20029;-86
2023/11/15 04:19:20;;;;;;;11.48;0.95;;;10.20;99.90;;;;;;4966091;28;20133;-87
2023/11/15 04:21:46;;;;;;;14.73;1.00;;;10.10;99.90;;;;;;4979056;28;20041;-88
2023/11/15 04:24:12;;;;;;;10.82;1.52;;;10.20;99.90;;;;;;4969391;28;20031;-85
2023/11/15 04:26:38;;;;;;;12.27;0.82;;;10.20;99.90;;;;;;4983637;28;20628;-88
2023/11/15 04:29:04;;;;;;;10.27;1.10;;;10.20;99.90;;;;;;4985941;28;20122;-86
2023/11/15 04:31:29;;;;;;;10.35;1.15;;;10.20;99.90;;;;;;4965743;28;20448;-86
2023/11/15 04:33:55;;;;;;;13.55;0.80;;;10.10;99.90;;;;;;4983797;28;20086;-87
2023/11/15 04:36:21;;;;;;;9.63;0.77;;;10.20;99.90;;;;;;4969758;28;20031;-88
2023/11/15 04:38:47;;;;;;;9.13;0.82;;;10.10;99.90;;;;;;4982868;28;20090;-85
2023/11/15 04:41:13;;;;;;;8.95;0.70;;;10.20;99.90;;;;;;4978190;28;20043;-85
2023/11/15 04:43:39;;;;;;;13.35;0.98;;;10.20;99.90;;;;;;4982814;28;20054;-86
2023/11/15 04:46:05;;;;;;;9.35;0.52;;;10.20;99.90;;;;;;4985743;28;20026;-87
2023/11/15 04:48:31;;;;;;;13.85;0.85;;;10.20;99.90;;;;;;4966862;28;20067;-86
2023/11/15 04:50:57;;;;;;;13.85;0.82;;;10.20;99.90;;;;;;4968592;28;20475;-86
2023/11/15 04:53:27;;;;;;;8.88;0.70;;;10.20;99.90;;;;;;4983705;28;20230;-84
2023/11/15 04:55:52;;;;;;;14.35;1.15;;;10.30;99.90;;;;;;4966722;28;20042;-85
2023/11/15 04:58:18;;;;;;;14.32;0.80;;;10.20;99.90;;;;;;4977373;28;20026;-86
2023/11/15 05:00:44;;;;;;;13.70;1.08;;;10.30;99.90;;;;;;4965030;28;20031;-83
2023/11/15 05:03:12;;;;;;;14.70;0.88;;;10.20;99.90;;;;;;4984575;28;20114;-85
2023/11/15 05:05:39;;;;;;;14.50;0.70;;;10.30;99.90;;;;;;4965939;28;20493;-84
2023/11/15 05:08:05;;;;;;;11.88;1.10;;;10.30;99.90;;;;;;4979335;28;20093;-85
2023/11/15 05:10:30;;;;;;;12.38;1.30;;;10.20;99.90;;;;;;4984325;28;20788;-85
2023/11/15 05:12:56;;;;;;;14.30;1.05;;;10.30;99.90;;;;;;4983456;28;20390;-85
2023/11/15 05:15:22;;;;;;;11.88;1.00;;;10.30;99.90;;;;;;4985315;28;20386;-85
2023/11/15 05:17:47;;;;;;;11.95;1.10;;;10.30;99.90;;;;;;4995189;28;20362;-84
2023/11/15 05:20:13;;;;;;;12.02;0.80;;;10.30;99.90;;;;;;4995102;28;20026;-85
2023/11/15 05:22:39;;;;;;;11.80;1.00;;;10.30;99.90;;;;;;4989203;28;20034;-85
2023/11/15 05:25:08;;;;;;;12.35;1.10;;;10.30;99.90;;;;;;4997253;28;20031;-84
2023/11/15 05:27:34;;;;;;;13.80;1.30;;;10.30;99.90;;;;;;5000670;28;20033;-84
2023/11/15 05:30:00;;;;;;;13.00;0.63;;;10.30;99.90;;;;;;4981424;28;20022;-87
2023/11/15 05:32:25;;;;;;;9.02;1.05;;;10.30;99.90;;;;;;4970685;28;20475;-86
2023/11/15 05:34:51;;;;;;;9.50;0.90;;;10.30;99.90;;;;;;4968817;28;20027;-89
2023/11/15 05:37:17;;;;;;;12.30;0.88;;;10.20;99.90;;;;;;4985706;28;20041;-84
2023/11/15 05:39:43;;;;;;;9.27;0.70;;;10.20;99.90;;;;;;4998766;28;20122;-83
2023/11/15 05:42:09;;;;;;;15.27;1.20;;;10.20;99.90;;;;;;4968983;28;20034;-85
2023/11/15 05:44:35;;;;;;;15.57;0.90;;;10.20;99.90;;;;;;4970399;28;20093;-84
2023/11/15 05:47:02;;;;;;;16.45;1.73;;;10.20;99.90;;;;;;5000455;28;20030;-87
2023/11/15 05:49:28;;;;;;;14.73;1.10;;;10.20;99.90;;;;;;5001522;28;20053;-83
2023/11/15 05:51:54;;;;;;;14.23;1.08;;;10.20;99.90;;;;;;4969607;28;20039;-85
2023/11/15 05:54:19;;;;;;;17.13;1.83;;;10.20;99.90;;;;;;4999968;28;20026;-87
2023/11/15 05:56:48;;;;;;;13.13;1.08;;;10.20;99.90;;;;;;4986546;28;20084;-85
2023/11/15 05:59:14;;;;;;;12.05;0.95;;;10.20;99.90;;;;;;4972312;28;20041;-85
2023/11/15 06:01:40;;;;;;;12.68;1.08;;;10.30;99.90;;;;;;4982844;28;20038;-87
2023/11/15 06:04:07;;;;;;;11.18;0.95;;;10.30;99.90;;;;;;4996970;28;20042;-86
2023/11/15 06:06:34;;;;;;;10.27;1.27;;;10.30;99.90;;;;;;4971814;28;20062;-88
2023/11/15 06:08:59;;;;;;;9.88;1.40;;;10.30;99.90;;;;;;4966700;28;20026;-87
2023/11/15 06:11:25;;;;;;;13.25;1.40;;;10.30;99.90;;;;;;4984270;28;20034;-88
2023/11/15 06:13:51;;;;;;;10.98;1.98;;;10.30;99.90;;;;;;4970278;28;20057;-89
2023/11/15 06:16:18;;;;;;;8.57;0.93;;;10.30;99.90;;;;;;4965598;28;20466;-85
2023/11/15 06:18:44;;;;;;;10.68;0.82;;;10.20;99.90;;;;;;5002594;28;20387;-85
2023/11/15 06:21:11;;;;;;;9.50;0.70;;;10.30;99.90;;;;;;4984427;28;20077;-88
2023/11/15 06:23:37;;;;;;;13.48;0.82;;;10.20;99.90;;;;;;4969236;28;20467;-87
2023/11/15 06:26:03;;;;;;;14.88;1.17;;;10.20;99.90;;;;;;5000092;28;20038;-84
2023/11/15 06:28:29;;;;;;;22.20;1.70;;;10.20;99.90;;;;;;4970187;28;20049;-86
2023/11/15 06:30:55;;;;;;;14.70;1.63;;;10.30;99.90;;;;;;4967992;28;20034;-88
2023/11/15 06:33:20;;;;;;;19.02;2.67;;;10.30;99.90;;;;;;4984312;28;20042;-86
2023/11/15 06:35:46;;;;;;;15.30;1.83;;;10.30;99.90;;;;;;4970063;28;20038;-90
2023/11/15 06:38:13;;;;;;;13.32;1.45;;;10.40;99.90;;;;;;4983657;28;20038;-88
2023/11/15 06:40:39;;;;;;;10.38;1.25;;;10.30;99.90;;;;;;5000592;28;20513;-86
2023/11/15 06:43:07;;;;;;;13.55;1.75;;;10.30;99.90;;;;;;4985659;28;20026;-85
2023/11/15 06:45:33;;;;;;;11.98;1.58;;;10.30;99.90;;;;;;4971814;28;20402;-87
2023/11/15 06:48:00;;;;;;;15.23;1.75;;;10.40;99.90;;;;;;4987968;28;20026;-85
2023/11/15 06:50:26;;;;;;;14.38;2.03;;;10.30;99.90;;;;;;4967349;28;20029;-89
2023/11/15 06:52:52;;;;;;;12.90;2.13;;;10.30;99.90;;;;;;4999428;28;20400;-89
2023/11/15 06:55:18;;;;;;;17.33;2.85;;;10.30;99.90;;;;;;4967816;28;20089;-88
2023/11/15 06:57:44;;;;;;;14.55;2.25;;;10.20;99.90;;;;;;4972690;28;20034;-88
2023/11/15 07:00:11;;;;;;;11.32;1.75;;;10.20;99.90;;;;;;4999325;28;20023;-86
2023/11/15 07:02:37;;;;;;;11.20;1.80;;;10.20;99.90;;;;;;5000850;28;20113;-87
2023/11/15 07:05:05;;;;;;;19.63;3.33;;;10.30;99.90;;;;;;4986697;28;20047;-86
2023/11/15 07:07:32;;;;;;;15.30;2.15;;;10.30;99.90;;;;;;4967342;28;20066;-89
2023/11/15 07:09:58;;;;;;;10.95;1.45;;;10.20;99.90;;;;;;4985008;28;20072;-89
2023/11/15 07:12:24;;;;;;;10.15;1.90;;;10.20;99.90;;;;;;4971638;28;20038;-87
2023/11/15 07:14:53;;;;;;;18.25;2.95;;;10.30;99.90;;;;;;4967806;28;20023;-85
2023/11/15 07:17:19;;;;;;;14.10;1.83;;;10.30;99.90;;;;;;4986043;28;20053;-85
2023/11/15 07:19:48;;;;;;;21.85;2.30;;;10.30;99.90;;;;;;4999247;28;20038;-86
2023/11/15 07:22:14;;;;;;;14.15;2.30;;;10.30;99.90;;;;;;4986329;28;20045;-85
2023/11/15 07:24:41;;;;;;;13.07;2.65;;;10.30;99.90;;;;;;4983246;28;20089;-87
2023/11/15 07:27:09;;;;;;;16.30;2.42;;;10.30;99.90;;;;;;4970726;28;20504;-86
2023/11/15 07:29:36;;;;;;;14.93;2.90;;;10.30;99.90;;;;;;4968739;28;20046;-88
2023/11/15 07:32:03;;;;;;;15.80;2.20;;;10.30;99.90;;;;;;4986411;28;20113;-88
2023/11/15 07:34:31;;;;;;;17.38;3.42;;;10.40;99.90;;;;;;5000245;28;20038;-89
2023/11/15 07:36:57;;;;;;;15.52;2.88;;;10.30;99.90;;;;;;4970686;28;20034;-89
2023/11/15 07:39:24;;;;;;;14.75;2.33;;;10.40;99.90;;;;;;4968724;28;20035;-89
2023/11/15 07:41:51;;;;;;;12.80;2.03;;;10.30;99.90;;;;;;4973696;28;20030;-88
2023/11/15 07:44:18;;;;;;;13.05;2.22;;;10.30;99.90;;;;;;4967335;28;20382;-88
2023/11/15 07:46:49;;;;;;;15.15;2.53;;;10.30;99.90;;;;;;4966978;28;20446;-91
2023/11/15 07:49:20;;;;;;;12.13;1.92;;;10.30;99.90;;;;;;4967485;28;20456;-89
2023/11/15 07:51:46;;;;;;;10.90;1.65;;;10.30;99.90;;;;;;4986261;28;20754;-89
2023/11/15 07:54:13;;;;;;;16.45;2.38;;;10.20;99.90;;;;;;4967190;28;20189;-89
2023/11/15 07:56:42;;;;;;;12.60;2.03;;;10.20;99.90;;;;;;4985072;28;20502;-88
2023/11/15 07:59:10;;;;;;;9.02;1.33;;;10.20;99.90;;;;;;4972055;28;20253;-90
2023/11/15 08:01:37;;;;;;;6.78;0.85;;;10.10;99.90;;;;;;4967544;28;20042;-90
2023/11/15 08:04:06;;;;;;;5.07;0.45;;;9.90;99.90;;;;;;4985579;28;20625;-90
2023/11/15 08:06:33;;;;;;;3.53;0.50;;;9.80;99.90;;;;;;4984710;28;20105;-91
2023/11/15 08:09:00;;;;;;;3.30;0.40;;;9.70;99.90;;;;;;4970270;28;20076;-91
2023/11/15 08:11:26;;;;;;;6.32;0.50;;;9.70;99.90;;;;;;4970359;28;20038;-89
2023/11/15 08:13:55;;;;;;;7.55;0.60;;;9.80;99.90;;;;;;4969298;28;20039;-88
2023/11/15 08:16:22;;;;;;;8.50;0.50;;;9.90;99.90;;;;;;4969628;28;20031;-88
2023/11/15 08:18:49;;;;;;;6.78;0.70;;;9.90;99.90;;;;;;4972324;28;20155;-89
2023/11/15 08:21:15;;;;;;;10.68;1.13;;;9.90;99.90;;;;;;4999027;28;20062;-90
2023/11/15 08:23:41;;;;;;;7.97;0.95;;;10.00;99.90;;;;;;4984884;28;20395;-90
2023/11/15 08:26:07;;;;;;;12.43;1.00;;;10.10;99.90;;;;;;4986131;28;20030;-87
2023/11/15 08:28:33;;;;;;;16.90;1.98;;;10.20;99.90;;;;;;4983231;28;20027;-89
2023/11/15 08:30:59;;;;;;;12.20;1.48;;;10.30;99.90;;;;;;4996399;28;20062;-90
2023/11/15 08:33:26;;;;;;;16.13;2.10;;;10.40;99.90;;;;;;4984315;28;20037;-88
2023/11/15 08:35:53;;;;;;;18.50;2.50;;;10.40;99.90;;;;;;4988076;28;20037;-87
2023/11/15 08:38:24;;;;;;;13.60;1.35;;;10.40;99.90;;;;;;4969080;28;20030;-89
2023/11/15 08:40:51;;;;;;;14.90;1.20;;;10.40;99.90;;;;;;4985376;28;20081;-90
2023/11/15 08:43:19;;;;;;;15.02;2.08;;;10.30;99.90;;;;;;4989891;28;20471;-87
2023/11/15 08:45:45;;;;;;;12.10;1.20;;;10.30;99.90;;;;;;4984072;28;20058;-90
2023/11/15 08:48:13;;;;;;;16.92;1.92;;;10.40;99.90;;;;;;4974147;28;20053;-87
2023/11/15 08:50:46;;;;;;;21.08;2.05;;;10.50;99.90;;;;;;4973536;28;20085;-87
2023/11/15 08:53:12;;;;;;;11.48;2.40;;;10.50;99.90;;;;;;4971648;28;20030;-88
2023/11/15 08:55:40;;;;;;;12.77;1.90;;;10.40;99.90;;;;;;4967505;28;20054;-88
2023/11/15 08:58:07;;;;;;;16.20;1.85;;;10.40;99.90;;;;;;4967723;28;20039;-88
2023/11/15 09:00:33;;;;;;;15.10;1.50;;;10.40;99.90;;;;;;4985861;28;20046;-88
2023/11/15 09:03:00;;;;;;;14.40;1.30;;;10.50;99.90;;;;;;4967119;28;20030;-87
2023/11/15 09:05:26;;;;;;;12.63;1.30;;;10.60;99.90;;;;;;4966234;28;20050;-87
2023/11/15 09:07:52;;;;;;;12.77;1.88;;;10.60;99.90;;;;;;4994717;28;20030;-88
2023/11/15 09:10:17;;;;;;;17.40;1.25;;;10.60;99.90;;;;;;4982021;28;20039;-88
2023/11/15 09:12:46;;;;;;;6.70;0.50;;;10.60;99.90;;;;;;4963736;28;20419;-87
2023/11/15 09:15:11;;;;;;;11.75;0.70;;;10.60;99.90;;;;;;4984570;28;20026;-89
2023/11/15 09:17:48;;;;;;;9.43;0.80;;;10.50;99.90;;;;;;4966947;28;20039;-87
2023/11/15 09:20:26;;;;;;;7.90;0.70;;;10.50;99.90;;;;;;4984375;28;20023;-89
2023/11/15 09:22:57;;;;;;;11.38;0.63;;;10.50;99.90;;;;;;4978176;28;20355;-88
2023/11/15 09:25:28;;;;;;;12.27;0.82;;;10.50;99.90;;;;;;4980286;28;20065;-87
2023/11/15 09:27:59;;;;;;;8.85;0.63;;;10.50;99.90;;;;;;4962235;28;20031;-87
2023/11/15 09:30:26;;;;;;;9.90;1.15;;;10.50;99.90;;;;;;4995293;28;20027;-88
2023/11/15 09:32:52;;;;;;;13.77;1.05;;;10.60;99.90;;;;;;4965312;28;20034;-88
2023/11/15 09:35:23;;;;;;;13.68;1.60;;;10.60;99.90;;;;;;4968050;28;20034;-88
2023/11/15 09:37:52;;;;;;;9.63;1.08;;;10.70;99.90;;;;;;4964922;28;20150;-88
2023/11/15 09:40:19;;;;;;;8.30;0.90;;;10.70;99.90;;;;;;4964758;28;20030;-89
2023/11/15 09:42:46;;;;;;;7.35;1.08;;;10.60;99.90;;;;;;4962911;28;20034;-88
2023/11/15 09:45:19;;;;;;;9.27;1.48;;;10.80;99.90;;;;;;4978167;28;20031;-87
2023/11/15 09:47:47;;;;;;;9.60;1.08;;;10.90;99.90;;;;;;4968823;28;20076;-87
2023/11/15 09:50:16;;;;;;;10.90;1.75;;;10.90;99.90;;;;;;4985984;28;20469;-89
2023/11/15 09:52:47;;;;;;;10.77;1.50;;;10.80;99.90;;;;;;4959129;28;20388;-89
2023/11/15 09:55:13;;;;;;;7.93;0.93;;;10.80;99.90;;;;;;4980777;28;20027;-87
2023/11/15 09:57:39;;;;;;;10.65;1.45;;;10.90;99.90;;;;;;4967466;28;20041;-88
2023/11/15 10:00:09;;;;;;;12.43;1.95;;;11.10;99.90;;;;;;4962140;28;20387;-88
2023/11/15 10:02:36;;;;;;;;;;;11.10;99.90;;;;;;4964719;28;20037;-86
2023/11/15 10:05:20;;;;;;;17.92;1.90;;;11.00;99.90;;;;;;4977485;28;19918;-86
2023/11/15 10:07:47;;;;;;;14.52;1.70;;;11.00;99.90;;;;;;4992285;28;20026;-89
2023/11/15 10:10:21;;;;;;;8.88;1.33;;;10.90;99.90;;;;;;4969047;28;20042;-85
2023/11/15 10:12:50;;;;;;;8.30;1.50;;;10.90;99.90;;;;;;4980584;28;20038;-86
2023/11/15 10:15:30;;;;;;;7.00;0.60;;;10.80;99.90;;;;;;4975147;28;20450;-86
2023/11/15 10:17:56;;;;;;;13.10;1.33;;;11.00;99.90;;;;;;4962054;28;20042;-90
2023/11/15 10:20:25;;;;;;;6.60;0.73;;;11.00;99.90;;;;;;4980457;28;20034;-87
2023/11/15 10:22:53;;;;;;;5.53;0.60;;;11.00;99.90;;;;;;4959465;28;20026;-87
2023/11/15 10:25:19;;;;;;;7.10;0.60;;;11.10;99.90;;;;;;4962191;28;20297;-85
2023/11/15 10:27:46;;;;;;;11.48;1.38;;;11.10;99.90;;;;;;4963721;28;20044;-89
2023/11/15 10:30:16;;;;;;;8.75;0.70;;;11.00;99.90;;;;;;4963556;28;20069;-85
2023/11/15 10:32:44;;;;;;;9.50;0.80;;;11.10;99.90;;;;;;4991980;28;20046;-85
2023/11/15 10:35:10;;;;;;;8.30;1.45;;;11.10;99.90;;;;;;4961743;28;20061;-85
2023/11/15 10:37:49;;;;;;;10.23;0.77;;;11.00;99.90;;;;;;4975804;28;20086;-89
2023/11/15 10:40:16;;;;;;;11.38;1.65;;;11.30;99.90;;;;;;4962543;28;20031;-86
2023/11/15 10:42:48;;;;;;;7.15;0.60;;;11.20;99.90;;;;;;4975193;28;20085;-87
2023/11/15 10:45:15;;;;;;;8.63;0.75;;;11.20;99.90;;;;;;4982934;28;20161;-87
2023/11/15 10:47:49;;;;;;;13.38;1.00;;;11.20;99.90;;;;;;4979158;28;20039;-85
2023/11/15 10:50:20;;;;;;;13.00;1.25;;;11.10;99.90;;;;;;4976795;28;20023;-86
2023/11/15 10:52:48;;;;;;;6.03;0.80;;;11.20;99.90;;;;;;4983120;28;20518;-85
2023/11/15 10:55:14;;;;;;;11.45;1.67;;;11.30;99.90;;;;;;4958292;28;20026;-89
2023/11/15 10:57:46;;;;;;;11.30;1.20;;;11.20;99.90;;;;;;4974879;28;20042;-90
2023/11/15 11:00:19;;;;;;;8.50;0.55;;;11.20;99.90;;;;;;4978376;28;20026;-88
2023/11/15 11:02:45;;;;;;;9.50;0.98;;;11.30;99.90;;;;;;4978224;28;20088;-85
2023/11/15 11:05:24;;;;;;;11.63;0.98;;;11.60;99.90;;;;;;4975401;28;20130;-86
2023/11/15 11:08:01;;;;;;;9.32;0.65;;;11.70;99.90;;;;;;4979437;28;20130;-86
2023/11/15 11:10:33;;;;;;;10.18;0.95;;;11.60;99.90;;;;;;4977948;28;20033;-85
2023/11/15 11:12:58;;;;;;;8.27;0.60;;;11.80;99.90;;;;;;4975892;28;20034;-87
2023/11/15 11:15:28;;;;;;;10.65;1.23;;;12.00;99.90;;;;;;4983917;28;20030;-88
2023/11/15 11:18:11;;;;;;;9.57;0.80;;;12.10;99.90;;;;;;4966617;28;20041;-87
2023/11/15 11:20:40;;;;;;;10.50;0.60;;;12.20;99.90;;;;;;4966085;28;20030;-88
2023/11/15 11:23:19;;;;;;;9.00;0.52;;;12.20;99.90;;;;;;4962190;28;20026;-90
2023/11/15 11:25:47;;;;;;;6.75;0.50;;;12.10;99.90;;;;;;4961092;28;20038;-88
2023/11/15 11:28:13;;;;;;;11.52;1.08;;;12.00;99.90;;;;;;4962546;28;20034;-87
2023/11/15 11:30:43;;;;;;;8.68;0.77;;;11.80;99.90;;;;;;4961913;28;20035;-89
2023/11/15 11:33:15;;;;;;;9.02;0.63;;;11.60;99.90;;;;;;4967522;28;20172;-86
2023/11/15 11:35:41;;;;;;;9.98;0.75;;;11.60;99.90;;;;;;4965520;28;20034;-87
2023/11/15 11:38:11;;;;;;;9.90;0.60;;;11.50;99.90;;;;;;4965824;28;20066;-88
2023/11/15 11:40:42;;;;;;;8.45;0.60;;;11.50;99.90;;;;;;4965770;28;20123;-91
2023/11/15 11:43:15;;;;;;;12.13;1.00;;;11.40;99.90;;;;;;4960957;28;20030;-87
2023/11/15 11:45:47;;;;;;;10.55;1.05;;;11.40;99.90;;;;;;4980221;28;20368;-85
2023/11/15 11:48:24;;;;;;;7.35;0.90;;;11.60;99.90;;;;;;4981439;28;20145;-87
2023/11/15 11:51:03;;;;;;;8.77;0.60;;;11.70;99.90;;;;;;4974344;28;20129;-88
2023/11/15 11:53:29;;;;;;;8.30;0.90;;;11.70;99.90;;;;;;4978159;28;20048;-88
2023/11/15 11:55:56;;;;;;;9.02;0.90;;;11.70;99.90;;;;;;4978120;28;20022;-86
2023/11/15 11:58:27;;;;;;;5.20;0.70;;;11.60;99.90;;;;;;4961473;28;20031;-86
2023/11/15 12:01:04;;;;;;;9.23;0.50;;;11.60;99.90;;;;;;4964074;28;20185;-85
2023/11/15 12:03:31;;;;;;;7.85;0.43;;;11.60;99.90;;;;;;4993554;28;20030;-87
2023/11/15 12:06:09;;;;;;;6.85;0.50;;;11.50;99.90;;;;;;4963253;28;20607;-88
2023/11/15 12:08:48;;;;;;;5.65;0.50;;;11.50;99.90;;;;;;4973758;28;20026;-88
2023/11/15 12:11:17;;;;;;;9.57;0.57;;;11.60;99.90;;;;;;4973620;28;20129;-88
2023/11/15 12:13:50;;;;;;;8.82;0.55;;;11.80;99.90;;;;;;4974404;28;20058;-86
2023/11/15 12:16:20;;;;;;;11.10;0.70;;;11.90;99.90;;;;;;4982266;28;20038;-90
2023/11/15 12:19:01;;;;;;;;;;;11.80;99.90;;;;;;4989455;28;20026;-90
2023/11/15 12:21:30;;;;;;;9.00;0.68;;;11.70;99.90;;;;;;4989521;28;20057;-88
2023/11/15 12:23:56;;;;;;;5.10;0.50;;;11.60;99.90;;;;;;5000113;28;20380;-91
2023/11/15 12:26:23;;;;;;;11.15;0.60;;;11.50;99.90;;;;;;4982517;28;20082;-92
2023/11/15 12:28:49;;;;;;;6.68;0.50;;;11.40;99.90;;;;;;4966073;28;20027;-88
2023/11/15 12:31:15;;;;;;;5.97;0.40;;;11.20;99.90;;;;;;4998027;28;20385;-89
2023/11/15 12:33:41;;;;;;;9.63;0.60;;;11.20;99.90;;;;;;4986573;28;20045;-83
2023/11/15 12:36:07;;;;;;;11.55;0.70;;;11.20;99.90;;;;;;4976946;28;20050;-92
2023/11/15 12:38:33;;;;;;;14.05;1.35;;;11.10;99.90;;;;;;4982944;28;20502;-91
2023/11/15 12:41:03;;;;;;;7.10;0.40;;;11.00;99.90;;;;;;4982892;28;20026;-85
2023/11/15 12:43:30;;;;;;;;;;;10.80;99.90;;;;;;4989404;28;20164;-88
2023/11/15 12:46:03;;;;;;;4.93;0.30;;;10.50;99.90;;;;;;4982759;28;20005;-85